createdAt,value
2022-12-25T00:00:06.488Z,78.84
2022-12-25T00:01:06.551Z,79.97
2022-12-25T00:02:06.598Z,81.38
2022-12-25T00:03:06.787Z,82.02
2022-12-25T00:04:06.885Z,83.41
2022-12-25T00:05:06.898Z,84.68
2022-12-25T00:06:07.056Z,85.99
2022-12-25T00:07:07.095Z,87.25
2022-12-25T00:08:07.182Z,88.83
2022-12-25T00:09:07.388Z,89.78
2022-12-25T00:10:07.464Z,91.56
2022-12-25T00:11:07.625Z,93.51
2022-12-25T00:12:07.804Z,94.39
2022-12-25T00:13:07.916Z,96.24
2022-12-25T00:14:08.110Z,98.98
2022-12-25T00:15:08.154Z,102.00
2022-12-25T00:16:08.280Z,104.95
2022-12-25T00:17:08.363Z,106.63
2022-12-25T00:18:08.502Z,108.78
2022-12-25T00:19:08.680Z,110.59
2022-12-25T00:20:08.723Z,111.18
2022-12-25T00:21:08.857Z,113.29
2022-12-25T00:22:08.940Z,114.93
2022-12-25T00:23:09.059Z,116.69
2022-12-25T00:24:09.265Z,118.35
2022-12-25T00:25:09.259Z,119.97
2022-12-25T00:26:09.360Z,121.19
2022-12-25T00:27:09.488Z,121.89
2022-12-25T00:28:09.621Z,123.06
2022-12-25T00:29:09.771Z,124.44
2022-12-25T00:30:09.870Z,124.63
2022-12-25T00:31:10.087Z,124.63
2022-12-25T00:32:10.062Z,124.44
2022-12-25T00:33:10.269Z,124.44
2022-12-25T00:34:10.283Z,124.91
2022-12-25T00:35:10.381Z,125.19
2022-12-25T00:36:10.475Z,124.81
2022-12-25T00:37:10.684Z,124.07
2022-12-25T00:38:10.719Z,123.25
2022-12-25T00:39:10.853Z,123.89
2022-12-25T00:40:10.978Z,123.34
2022-12-25T00:41:11.079Z,122.97
2022-12-25T00:42:11.170Z,121.89
2022-12-25T00:43:11.303Z,121.28
2022-12-25T00:44:11.410Z,119.97
2022-12-25T00:45:11.516Z,118.52
2022-12-25T00:46:11.728Z,117.93
2022-12-25T00:47:11.774Z,117.19
2022-12-25T00:48:11.824Z,115.25
2022-12-25T00:49:11.970Z,113.83
2022-12-25T00:50:12.064Z,113.14
2022-12-25T00:51:12.177Z,113.29
2022-12-25T00:52:12.301Z,112.60
2022-12-25T00:53:12.410Z,111.92
2022-12-25T00:54:12.524Z,111.70
2022-12-25T00:55:12.638Z,111.18
2022-12-25T00:56:12.747Z,110.37
2022-12-25T00:57:12.844Z,109.14
2022-12-25T00:58:12.960Z,108.43
2022-12-25T00:59:13.120Z,107.52
2022-12-25T01:00:13.280Z,105.55
2022-12-25T01:01:13.326Z,105.28
2022-12-25T01:02:13.522Z,104.69
2022-12-25T01:03:13.636Z,103.97
2022-12-25T01:04:13.662Z,103.58
2022-12-25T01:05:13.757Z,103.20
2022-12-25T01:06:13.810Z,102.82
2022-12-25T01:07:14.010Z,102.00
2022-12-25T01:08:14.048Z,100.71
2022-12-25T01:09:14.158Z,100.83
2022-12-25T01:10:14.300Z,100.89
2022-12-25T01:11:14.348Z,100.95
2022-12-25T01:12:14.475Z,101.38
2022-12-25T01:13:14.602Z,101.32
2022-12-25T01:14:14.696Z,100.10
2022-12-25T01:15:14.858Z,99.99
2022-12-25T01:16:14.944Z,99.39
2022-12-25T01:17:15.045Z,100.35
2022-12-25T01:18:15.123Z,100.77
2022-12-25T01:19:15.275Z,100.83
2022-12-25T01:20:15.405Z,101.82
2022-12-25T01:21:15.459Z,100.95
2022-12-25T01:22:15.566Z,101.63
2022-12-25T01:23:15.695Z,101.94
2022-12-25T01:24:15.805Z,102.06
2022-12-25T01:25:15.885Z,102.75
2022-12-25T01:26:16.062Z,103.01
2022-12-25T01:27:16.115Z,103.46
2022-12-25T01:28:16.215Z,101.88
2022-12-25T01:29:16.351Z,102.38
2022-12-25T01:30:16.422Z,102.44
2022-12-25T01:31:16.563Z,101.50
2022-12-25T01:32:16.644Z,101.82
2022-12-25T01:33:16.748Z,102.50
2022-12-25T01:34:16.873Z,101.32
2022-12-25T01:35:16.962Z,102.69
2022-12-25T01:36:17.122Z,102.31
2022-12-25T01:37:17.187Z,100.65
2022-12-25T01:38:17.283Z,99.93
2022-12-25T01:39:17.468Z,99.04
2022-12-25T01:40:17.530Z,97.13
2022-12-25T01:41:17.667Z,95.79
2022-12-25T01:42:17.819Z,95.25
2022-12-25T01:43:18.782Z,93.93
2022-12-25T01:44:18.051Z,92.68
2022-12-25T01:45:18.234Z,91.26
2022-12-25T01:46:18.391Z,90.86
2022-12-25T01:47:18.598Z,90.07
2022-12-25T01:48:18.605Z,88.92
2022-12-25T01:49:18.640Z,87.61
2022-12-25T01:50:18.787Z,86.43
2022-12-25T01:51:18.918Z,85.99
2022-12-25T01:52:23.902Z,85.37
2022-12-25T01:53:20.173Z,84.51
2022-12-25T01:54:19.248Z,83.08
2022-12-25T01:55:19.356Z,81.94
2022-12-25T01:56:19.511Z,80.82
2022-12-25T01:57:19.599Z,80.43
2022-12-25T01:58:19.791Z,79.21
2022-12-25T01:59:19.940Z,79.14
2022-12-25T02:00:19.996Z,78.32
2022-12-25T02:01:20.310Z,77.96
2022-12-25T02:02:20.314Z,77.88
2022-12-25T02:03:20.481Z,77.09
2022-12-25T02:04:20.495Z,76.25
2022-12-25T02:05:20.602Z,75.08
2022-12-25T02:06:20.701Z,74.74
2022-12-25T02:07:20.852Z,73.62
2022-12-25T02:08:20.933Z,73.49
2022-12-25T02:09:21.034Z,72.22
2022-12-25T02:10:21.145Z,72.41
2022-12-25T02:11:21.232Z,72.35
2022-12-25T02:12:21.358Z,73.36
2022-12-25T02:13:21.533Z,72.66
2022-12-25T02:14:21.596Z,73.36
2022-12-25T02:15:21.770Z,73.75
2022-12-25T02:16:21.893Z,72.53
2022-12-25T02:17:22.024Z,72.85
2022-12-25T02:18:22.244Z,72.79
2022-12-25T02:19:22.203Z,72.16
2022-12-25T02:20:22.321Z,72.28
2022-12-25T02:21:22.420Z,73.11
2022-12-25T02:22:22.508Z,72.66
2022-12-25T02:23:22.696Z,71.72
2022-12-25T02:24:22.803Z,71.42
2022-12-25T02:25:22.921Z,71.54
2022-12-25T02:26:23.016Z,71.54
2022-12-25T02:27:23.183Z,71.60
2022-12-25T02:28:23.300Z,71.11
2022-12-25T02:29:23.421Z,70.57
2022-12-25T02:30:23.517Z,67.71
2022-12-25T02:31:23.649Z,65.42
2022-12-25T02:32:23.758Z,65.17
2022-12-25T02:33:23.984Z,64.71
2022-12-25T02:34:24.036Z,64.07
2022-12-25T02:35:24.119Z,64.02
2022-12-25T02:36:24.260Z,62.58
2022-12-25T02:37:24.356Z,61.65
2022-12-25T02:38:24.686Z,61.34
2022-12-25T02:39:24.611Z,60.71
2022-12-25T02:40:24.718Z,60.58
2022-12-25T02:41:24.823Z,59.97
2022-12-25T02:42:24.962Z,59.33
2022-12-25T02:43:25.074Z,58.74
2022-12-25T02:44:25.146Z,57.33
2022-12-25T02:45:25.296Z,56.63
2022-12-25T02:46:25.593Z,56.02
2022-12-25T02:47:25.522Z,55.69
2022-12-25T02:48:25.690Z,55.03
2022-12-25T02:49:25.769Z,54.63
2022-12-25T02:50:25.836Z,54.70
2022-12-25T02:51:25.993Z,54.85
2022-12-25T02:52:26.146Z,54.42
2022-12-25T02:53:26.274Z,54.70
2022-12-25T02:54:26.362Z,54.59
2022-12-25T02:55:26.452Z,55.24
2022-12-25T02:56:26.651Z,55.17
2022-12-25T02:57:26.711Z,55.72
2022-12-25T02:58:26.861Z,55.69
2022-12-25T02:59:26.890Z,56.52
2022-12-25T03:00:27.030Z,56.98
2022-12-25T03:01:27.241Z,57.06
2022-12-25T03:02:28.395Z,57.81
2022-12-25T03:03:27.567Z,57.93
2022-12-25T03:04:27.525Z,58.38
2022-12-25T03:05:27.646Z,59.08
2022-12-25T03:06:27.741Z,59.71
2022-12-25T03:07:27.865Z,60.10
2022-12-25T03:08:27.991Z,60.67
2022-12-25T03:09:28.095Z,61.34
2022-12-25T03:10:28.190Z,62.21
2022-12-25T03:11:28.335Z,62.53
2022-12-25T03:12:28.420Z,62.86
2022-12-25T03:13:28.610Z,63.29
2022-12-25T03:14:28.858Z,63.48
2022-12-25T03:15:28.852Z,64.17
2022-12-25T03:16:28.962Z,64.41
2022-12-25T03:17:29.057Z,64.66
2022-12-25T03:18:29.223Z,65.22
2022-12-25T03:19:29.283Z,65.53
2022-12-25T03:20:29.378Z,66.47
2022-12-25T03:21:29.476Z,67.43
2022-12-25T03:22:29.717Z,68.04
2022-12-25T03:23:29.797Z,68.82
2022-12-25T03:24:29.818Z,70.10
2022-12-25T03:25:29.936Z,70.45
2022-12-25T03:26:30.055Z,70.81
2022-12-25T03:27:30.160Z,71.60
2022-12-25T03:28:30.318Z,71.91
2022-12-25T03:29:31.982Z,72.72
2022-12-25T03:30:30.502Z,73.17
2022-12-25T03:31:30.691Z,73.69
2022-12-25T03:32:30.755Z,74.34
2022-12-25T03:33:45.788Z,74.68
2022-12-25T03:34:32.199Z,75.69
2022-12-25T03:35:31.094Z,75.97
2022-12-25T03:36:31.242Z,77.23
2022-12-25T03:37:31.360Z,78.10
2022-12-25T03:38:31.536Z,78.54
2022-12-25T03:39:31.585Z,78.99
2022-12-25T03:40:31.664Z,79.97
2022-12-25T03:41:31.813Z,81.38
2022-12-25T03:42:31.996Z,82.34
2022-12-25T03:43:32.185Z,83.91
2022-12-25T03:44:32.243Z,85.37
2022-12-25T03:45:32.365Z,86.26
2022-12-25T03:46:32.589Z,86.52
2022-12-25T03:47:32.615Z,88.08
2022-12-25T03:48:32.739Z,89.02
2022-12-25T03:49:32.845Z,89.59
2022-12-25T03:50:32.917Z,91.26
2022-12-25T03:51:33.053Z,90.56
2022-12-25T03:52:33.184Z,88.54
2022-12-25T03:53:33.406Z,88.73
2022-12-25T03:54:33.422Z,88.54
2022-12-25T03:55:33.526Z,86.89
2022-12-25T03:56:33.625Z,85.99
2022-12-25T03:57:33.729Z,84.42
2022-12-25T03:58:33.841Z,85.20
2022-12-25T03:59:33.977Z,85.72
2022-12-25T04:00:34.071Z,86.79
2022-12-25T04:01:34.329Z,86.43
2022-12-25T04:02:34.548Z,84.42
2022-12-25T04:03:34.440Z,85.03
2022-12-25T04:04:34.634Z,85.55
2022-12-25T04:05:34.688Z,86.89
2022-12-25T04:06:34.779Z,87.07
2022-12-25T04:07:34.881Z,87.34
2022-12-25T04:08:35.095Z,88.45
2022-12-25T04:09:35.257Z,88.54
2022-12-25T04:10:35.241Z,89.98
2022-12-25T04:11:35.345Z,90.66
2022-12-25T04:12:35.544Z,91.26
2022-12-25T04:13:35.582Z,90.96
2022-12-25T04:14:35.748Z,92.88
2022-12-25T04:15:35.858Z,93.40
2022-12-25T04:16:35.965Z,94.57
2022-12-25T04:17:36.136Z,95.87
2022-12-25T04:18:36.191Z,94.98
2022-12-25T04:19:36.345Z,96.51
2022-12-25T04:20:36.377Z,96.24
2022-12-25T04:21:36.522Z,97.70
2022-12-25T04:22:36.657Z,98.51
2022-12-25T04:23:36.870Z,99.21
2022-12-25T04:24:36.947Z,99.99
2022-12-25T04:25:36.973Z,99.75
2022-12-25T04:26:37.107Z,99.04
2022-12-25T04:27:37.211Z,96.35
2022-12-25T04:28:37.303Z,95.41
2022-12-25T04:29:37.551Z,95.19
2022-12-25T04:30:37.583Z,97.08
2022-12-25T04:31:37.729Z,98.16
2022-12-25T04:32:37.837Z,98.62
2022-12-25T04:33:37.916Z,99.99
2022-12-25T04:34:38.061Z,100.35
2022-12-25T04:35:38.127Z,101.20
2022-12-25T04:36:38.220Z,102.06
2022-12-25T04:37:38.321Z,102.31
2022-12-25T04:38:38.462Z,102.69
2022-12-25T04:39:38.628Z,102.75
2022-12-25T04:40:38.672Z,102.57
2022-12-25T04:41:38.793Z,103.78
2022-12-25T04:42:40.587Z,103.20
2022-12-25T04:43:38.985Z,103.71
2022-12-25T04:44:39.112Z,103.71
2022-12-25T04:45:39.263Z,103.78
2022-12-25T04:46:39.355Z,103.78
2022-12-25T04:47:39.476Z,103.26
2022-12-25T04:48:39.583Z,103.26
2022-12-25T04:49:39.727Z,102.25
2022-12-25T04:50:39.929Z,100.77
2022-12-25T04:51:39.898Z,100.04
2022-12-25T04:52:40.016Z,98.92
2022-12-25T04:53:40.128Z,98.05
2022-12-25T04:54:40.256Z,97.19
2022-12-25T04:55:40.419Z,95.74
2022-12-25T04:56:45.514Z,95.79
2022-12-25T04:57:41.595Z,95.14
2022-12-25T04:58:40.735Z,94.87
2022-12-25T04:59:40.854Z,94.76
2022-12-25T05:00:40.964Z,94.65
2022-12-25T05:01:41.174Z,94.60
2022-12-25T05:02:41.486Z,94.55
2022-12-25T05:03:41.440Z,94.01
2022-12-25T05:04:41.434Z,94.44
2022-12-25T05:05:41.631Z,93.86
2022-12-25T05:06:41.732Z,93.91
2022-12-25T05:07:41.823Z,94.12
2022-12-25T05:08:41.971Z,94.17
2022-12-25T05:09:42.062Z,93.86
2022-12-25T05:10:42.265Z,94.39
2022-12-25T05:11:42.403Z,94.33
2022-12-25T05:12:42.521Z,94.33
2022-12-25T05:13:42.615Z,95.87
2022-12-25T05:14:42.769Z,95.54
2022-12-25T05:15:42.888Z,95.21
2022-12-25T05:16:42.951Z,94.67
2022-12-25T05:17:43.092Z,93.93
2022-12-25T05:18:43.267Z,94.03
2022-12-25T05:19:43.425Z,93.61
2022-12-25T05:20:43.635Z,93.09
2022-12-25T05:21:43.549Z,92.78
2022-12-25T05:22:43.701Z,92.06
2022-12-25T05:23:43.834Z,91.36
2022-12-25T05:24:43.856Z,90.66
2022-12-25T05:25:44.054Z,89.49
2022-12-25T05:26:44.218Z,88.54
2022-12-25T05:27:48.713Z,87.89
2022-12-25T05:28:45.347Z,86.89
2022-12-25T05:29:44.490Z,85.81
2022-12-25T05:30:44.670Z,84.25
2022-12-25T05:31:44.818Z,83.91
2022-12-25T05:32:44.817Z,83.08
2022-12-25T05:33:44.917Z,82.50
2022-12-25T05:34:45.063Z,81.69
2022-12-25T05:35:45.287Z,80.67
2022-12-25T05:36:45.377Z,80.75
2022-12-25T05:37:45.452Z,80.05
2022-12-25T05:38:45.505Z,79.44
2022-12-25T05:39:45.627Z,78.39
2022-12-25T05:40:45.745Z,77.59
2022-12-25T05:41:45.846Z,76.74
2022-12-25T05:42:45.944Z,75.83
2022-12-25T05:43:46.072Z,75.15
2022-12-25T05:44:46.172Z,74.61
2022-12-25T05:45:46.341Z,74.14
2022-12-25T05:46:46.440Z,73.62
2022-12-25T05:47:46.596Z,73.04
2022-12-25T05:48:46.676Z,72.66
2022-12-25T05:49:46.800Z,72.22
2022-12-25T05:50:47.509Z,72.10
2022-12-25T05:51:47.022Z,71.85
2022-12-25T05:52:47.123Z,71.54
2022-12-25T05:53:47.235Z,71.29
2022-12-25T05:54:47.339Z,70.69
2022-12-25T05:55:47.480Z,70.69
2022-12-25T05:56:48.135Z,70.81
2022-12-25T05:57:47.765Z,70.45
2022-12-25T05:58:47.871Z,70.21
2022-12-25T05:59:47.970Z,70.57
2022-12-25T06:00:48.064Z,70.51
2022-12-25T06:01:48.242Z,70.33
2022-12-25T06:02:48.582Z,70.45
2022-12-25T06:03:48.515Z,70.33
2022-12-25T06:04:48.490Z,70.04
2022-12-25T06:05:48.653Z,70.51
2022-12-25T06:06:48.797Z,70.04
2022-12-25T06:07:48.878Z,70.51
2022-12-25T06:08:48.954Z,70.33
2022-12-25T06:09:49.101Z,70.10
2022-12-25T06:10:49.719Z,70.57
2022-12-25T06:11:49.386Z,70.57
2022-12-25T06:12:49.499Z,69.98
2022-12-25T06:13:49.586Z,70.51
2022-12-25T06:14:49.710Z,70.81
2022-12-25T06:15:49.824Z,70.99
2022-12-25T06:16:49.997Z,70.93
2022-12-25T06:17:50.069Z,71.54
2022-12-25T06:18:50.243Z,71.85
2022-12-25T06:19:50.324Z,72.03
2022-12-25T06:20:50.485Z,72.35
2022-12-25T06:21:50.580Z,72.60
2022-12-25T06:22:50.747Z,72.98
2022-12-25T06:23:50.862Z,73.11
2022-12-25T06:24:50.922Z,73.82
2022-12-25T06:25:51.148Z,74.34
2022-12-25T06:26:51.192Z,74.81
2022-12-25T06:27:51.274Z,75.83
2022-12-25T06:28:51.441Z,76.39
2022-12-25T06:29:51.517Z,77.59
2022-12-25T06:30:51.662Z,78.25
2022-12-25T06:31:51.837Z,79.36
2022-12-25T06:32:51.865Z,79.97
2022-12-25T06:33:52.036Z,80.75
2022-12-25T06:34:52.065Z,81.78
2022-12-25T06:35:52.154Z,83.33
2022-12-25T06:36:52.306Z,84.08
2022-12-25T06:37:52.415Z,84.68
2022-12-25T06:38:52.511Z,85.20
2022-12-25T06:39:52.684Z,85.81
2022-12-25T06:40:52.789Z,85.90
2022-12-25T06:41:52.915Z,87.16
2022-12-25T06:42:52.990Z,87.89
2022-12-25T06:43:53.137Z,88.26
2022-12-25T06:44:53.317Z,89.02
2022-12-25T06:45:53.450Z,89.40
2022-12-25T06:46:53.535Z,89.02
2022-12-25T06:47:53.554Z,88.26
2022-12-25T06:48:53.764Z,87.98
2022-12-25T06:49:53.787Z,87.61
2022-12-25T06:50:55.494Z,86.97
2022-12-25T06:51:54.128Z,86.97
2022-12-25T06:52:54.184Z,86.89
2022-12-25T06:53:54.277Z,86.17
2022-12-25T06:54:54.430Z,85.99
2022-12-25T06:55:54.504Z,85.20
2022-12-25T06:56:54.674Z,84.94
2022-12-25T06:57:54.815Z,84.25
2022-12-25T06:58:54.863Z,84.00
2022-12-25T06:59:55.673Z,83.41
2022-12-25T07:00:55.127Z,82.75
2022-12-25T07:01:55.472Z,82.26
2022-12-25T07:02:55.454Z,82.10
2022-12-25T07:03:55.558Z,81.14
2022-12-25T07:04:55.692Z,80.36
2022-12-25T07:05:55.805Z,79.59
2022-12-25T07:06:55.950Z,79.82
2022-12-25T07:07:56.056Z,78.62
2022-12-25T07:08:56.202Z,78.25
2022-12-25T07:09:56.264Z,78.10
2022-12-25T07:10:56.470Z,77.02
2022-12-25T07:11:56.521Z,76.32
2022-12-25T07:12:56.628Z,75.83
2022-12-25T07:13:56.764Z,75.21
2022-12-25T07:14:56.908Z,75.21
2022-12-25T07:15:57.221Z,74.48
2022-12-25T07:16:57.289Z,73.95
2022-12-25T07:17:57.218Z,74.01
2022-12-25T07:18:57.421Z,73.69
2022-12-25T07:19:57.509Z,73.30
2022-12-25T07:20:57.592Z,73.82
2022-12-25T07:21:57.760Z,73.49
2022-12-25T07:22:57.817Z,74.01
2022-12-25T07:23:58.164Z,74.54
2022-12-25T07:24:58.101Z,74.74
2022-12-25T07:25:58.199Z,74.68
2022-12-25T07:26:58.318Z,74.88
2022-12-25T07:27:58.469Z,74.54
2022-12-25T07:28:58.628Z,74.21
2022-12-25T07:29:58.738Z,74.08
2022-12-25T07:30:58.797Z,73.69
2022-12-25T07:31:59.435Z,74.14
2022-12-25T07:33:00.137Z,73.23
2022-12-25T07:33:59.187Z,72.85
2022-12-25T07:34:59.260Z,72.47
2022-12-25T07:35:59.479Z,72.10
2022-12-25T07:36:59.477Z,71.72
2022-12-25T07:37:59.582Z,71.17
2022-12-25T07:38:59.728Z,70.93
2022-12-25T07:39:59.865Z,70.27
2022-12-25T07:40:59.966Z,69.69
2022-12-25T07:42:00.108Z,69.22
2022-12-25T07:43:00.358Z,68.21
2022-12-25T07:44:00.795Z,67.76
2022-12-25T07:45:00.429Z,67.00
2022-12-25T07:46:00.703Z,66.79
2022-12-25T07:47:00.697Z,66.20
2022-12-25T07:48:05.174Z,65.84
2022-12-25T07:49:01.851Z,65.22
2022-12-25T07:50:00.988Z,64.86
2022-12-25T07:51:01.090Z,64.26
2022-12-25T07:52:01.212Z,63.77
2022-12-25T07:53:01.387Z,63.53
2022-12-25T07:54:01.434Z,62.53
2022-12-25T07:55:01.624Z,62.07
2022-12-25T07:56:01.622Z,61.79
2022-12-25T07:57:01.950Z,61.38
2022-12-25T07:58:01.887Z,60.98
2022-12-25T07:59:01.982Z,60.49
2022-12-25T08:00:02.068Z,59.84
2022-12-25T08:01:02.250Z,59.71
2022-12-25T08:02:02.612Z,59.41
2022-12-25T08:03:02.794Z,59.16
2022-12-25T08:04:02.667Z,58.95
2022-12-25T08:05:02.849Z,58.50
2022-12-25T08:06:02.820Z,58.09
2022-12-25T08:07:03.225Z,57.81
2022-12-25T08:08:03.065Z,57.53
2022-12-25T08:09:03.140Z,57.33
2022-12-25T08:10:03.301Z,56.94
2022-12-25T08:11:03.549Z,56.36
2022-12-25T08:12:03.608Z,55.80
2022-12-25T08:13:07.680Z,55.39
2022-12-25T08:14:04.797Z,54.77
2022-12-25T08:15:03.888Z,54.49
2022-12-25T08:16:04.077Z,54.24
2022-12-25T08:17:04.213Z,54.17
2022-12-25T08:18:04.290Z,53.82
2022-12-25T08:19:04.338Z,53.61
2022-12-25T08:20:04.444Z,53.54
2022-12-25T08:21:04.588Z,53.30
2022-12-25T08:22:04.633Z,53.20
2022-12-25T08:23:04.790Z,52.73
2022-12-25T08:24:04.912Z,52.43
2022-12-25T08:25:05.011Z,52.10
2022-12-25T08:26:05.926Z,52.01
2022-12-25T08:27:05.243Z,51.94
2022-12-25T08:28:05.367Z,51.62
2022-12-25T08:29:05.465Z,51.34
2022-12-25T08:30:05.633Z,50.93
2022-12-25T08:31:05.848Z,50.47
2022-12-25T08:32:05.817Z,50.07
2022-12-25T08:33:05.988Z,49.77
2022-12-25T08:34:06.077Z,49.57
2022-12-25T08:35:06.175Z,49.27
2022-12-25T08:36:06.494Z,49.27
2022-12-25T08:37:06.428Z,48.90
2022-12-25T08:38:06.582Z,48.96
2022-12-25T08:39:06.679Z,49.04
2022-12-25T08:40:06.836Z,49.19
2022-12-25T08:41:06.955Z,48.61
2022-12-25T08:42:07.078Z,48.87
2022-12-25T08:43:07.176Z,48.61
2022-12-25T08:44:07.295Z,48.50
2022-12-25T08:45:07.397Z,48.50
2022-12-25T08:46:07.536Z,48.67
2022-12-25T08:47:07.649Z,49.04
2022-12-25T08:48:07.726Z,49.13
2022-12-25T08:49:07.828Z,49.33
2022-12-25T08:50:07.999Z,49.54
2022-12-25T08:51:08.255Z,49.60
2022-12-25T08:52:08.253Z,49.71
2022-12-25T08:53:08.390Z,49.89
2022-12-25T08:54:08.442Z,49.63
2022-12-25T08:55:08.591Z,49.45
2022-12-25T08:56:08.729Z,49.24
2022-12-25T08:57:08.818Z,49.19
2022-12-25T08:58:08.967Z,49.24
2022-12-25T08:59:09.078Z,48.81
2022-12-25T09:00:09.168Z,48.81
2022-12-25T09:01:09.313Z,48.81
2022-12-25T09:02:09.687Z,48.73
2022-12-25T09:03:09.520Z,48.44
2022-12-25T09:04:09.616Z,48.36
2022-12-25T09:05:09.787Z,48.22
2022-12-25T09:06:09.937Z,48.05
2022-12-25T09:07:09.977Z,47.86
2022-12-25T09:08:10.126Z,47.75
2022-12-25T09:09:10.225Z,47.42
2022-12-25T09:10:10.394Z,47.18
2022-12-25T09:11:10.626Z,47.05
2022-12-25T09:12:10.624Z,46.71
2022-12-25T09:13:10.709Z,46.66
2022-12-25T09:14:10.941Z,46.56
2022-12-25T09:15:10.964Z,46.82
2022-12-25T09:16:11.262Z,46.92
2022-12-25T09:17:11.202Z,46.66
2022-12-25T09:18:11.294Z,46.56
2022-12-25T09:19:11.405Z,46.76
2022-12-25T09:20:11.546Z,46.61
2022-12-25T09:21:11.669Z,46.50
2022-12-25T09:22:11.732Z,46.61
2022-12-25T09:23:14.412Z,46.35
2022-12-25T09:24:12.006Z,46.35
2022-12-25T09:25:12.112Z,46.25
2022-12-25T09:26:12.295Z,46.50
2022-12-25T09:27:12.311Z,46.40
2022-12-25T09:28:12.464Z,46.50
2022-12-25T09:29:12.557Z,46.30
2022-12-25T09:30:12.690Z,46.14
2022-12-25T09:31:12.967Z,46.30
2022-12-25T09:32:12.962Z,46.09
2022-12-25T09:33:13.069Z,46.04
2022-12-25T09:34:17.246Z,45.99
2022-12-25T09:35:14.290Z,45.94
2022-12-25T09:36:13.444Z,46.14
2022-12-25T09:37:13.533Z,46.40
2022-12-25T09:38:13.756Z,46.50
2022-12-25T09:39:13.800Z,46.50
2022-12-25T09:40:13.926Z,46.66
2022-12-25T09:41:14.151Z,46.50
2022-12-25T09:42:14.819Z,46.76
2022-12-25T09:43:14.384Z,46.92
2022-12-25T09:44:14.458Z,46.76
2022-12-25T09:45:14.566Z,46.76
2022-12-25T09:46:14.794Z,47.03
2022-12-25T09:47:14.824Z,46.71
2022-12-25T09:48:14.886Z,46.97
2022-12-25T09:49:14.974Z,46.94
2022-12-25T09:50:15.120Z,47.03
2022-12-25T09:51:15.355Z,46.82
2022-12-25T09:52:15.559Z,47.00
2022-12-25T09:53:15.542Z,47.16
2022-12-25T09:54:15.655Z,47.03
2022-12-25T09:55:19.881Z,47.00
2022-12-25T09:56:15.998Z,47.05
2022-12-25T09:57:16.021Z,46.76
2022-12-25T09:58:16.112Z,46.71
2022-12-25T09:59:16.221Z,46.71
2022-12-25T10:00:16.348Z,46.71
2022-12-25T10:01:16.722Z,46.61
2022-12-25T10:02:16.771Z,46.40
2022-12-25T10:03:16.876Z,46.56
2022-12-25T10:04:16.881Z,46.35
2022-12-25T10:05:17.098Z,46.71
2022-12-25T10:06:17.071Z,46.56
2022-12-25T10:07:17.196Z,46.61
2022-12-25T10:08:17.276Z,46.61
2022-12-25T10:09:17.412Z,46.56
2022-12-25T10:10:17.556Z,46.76
2022-12-25T10:11:17.721Z,46.82
2022-12-25T10:12:17.817Z,46.76
2022-12-25T10:13:17.960Z,47.05
2022-12-25T10:14:18.071Z,46.76
2022-12-25T10:15:18.160Z,46.97
2022-12-25T10:16:18.421Z,46.76
2022-12-25T10:17:18.435Z,46.92
2022-12-25T10:18:18.591Z,46.61
2022-12-25T10:19:18.718Z,46.92
2022-12-25T10:20:18.817Z,46.97
2022-12-25T10:21:18.918Z,46.92
2022-12-25T10:22:19.012Z,46.66
2022-12-25T10:23:19.198Z,46.97
2022-12-25T10:24:19.297Z,46.92
2022-12-25T10:25:19.414Z,46.56
2022-12-25T10:26:19.527Z,46.50
2022-12-25T10:27:19.617Z,46.50
2022-12-25T10:28:19.759Z,46.50
2022-12-25T10:29:19.943Z,46.35
2022-12-25T10:30:20.007Z,46.40
2022-12-25T10:31:20.230Z,46.19
2022-12-25T10:32:20.381Z,46.56
2022-12-25T10:33:20.388Z,46.40
2022-12-25T10:34:20.503Z,46.40
2022-12-25T10:35:20.595Z,46.35
2022-12-25T10:36:20.772Z,46.82
2022-12-25T10:37:20.834Z,46.35
2022-12-25T10:38:21.003Z,46.45
2022-12-25T10:39:21.098Z,46.45
2022-12-25T10:40:21.251Z,46.25
2022-12-25T10:41:21.405Z,46.66
2022-12-25T10:42:21.455Z,46.40
2022-12-25T10:43:21.536Z,46.50
2022-12-25T10:44:21.683Z,46.35
2022-12-25T10:45:21.893Z,46.66
2022-12-25T10:46:22.041Z,46.40
2022-12-25T10:47:22.076Z,46.50
2022-12-25T10:48:22.307Z,46.56
2022-12-25T10:49:23.220Z,46.30
2022-12-25T10:50:22.502Z,46.56
2022-12-25T10:51:22.520Z,46.56
2022-12-25T10:52:22.603Z,46.61
2022-12-25T10:53:22.766Z,46.76
2022-12-25T10:54:22.870Z,46.71
2022-12-25T10:55:28.368Z,46.45
2022-12-25T10:56:24.090Z,46.50
2022-12-25T10:57:23.184Z,46.56
2022-12-25T10:58:23.284Z,46.40
2022-12-25T10:59:23.368Z,46.87
2022-12-25T11:00:23.546Z,46.82
2022-12-25T11:01:23.805Z,46.82
2022-12-25T11:02:23.950Z,46.45
2022-12-25T11:03:24.056Z,46.66
2022-12-25T11:04:23.997Z,46.76
2022-12-25T11:05:24.210Z,46.56
2022-12-25T11:06:24.324Z,46.71
2022-12-25T11:07:24.343Z,46.82
2022-12-25T11:08:24.534Z,46.66
2022-12-25T11:09:24.621Z,46.61
2022-12-25T11:10:24.726Z,46.56
2022-12-25T11:11:24.863Z,46.45
2022-12-25T11:12:24.966Z,46.50
2022-12-25T11:13:25.100Z,46.40
2022-12-25T11:14:25.362Z,46.61
2022-12-25T11:15:25.377Z,46.40
2022-12-25T11:16:25.548Z,46.40
2022-12-25T11:17:25.654Z,46.35
2022-12-25T11:18:25.737Z,46.30
2022-12-25T11:19:25.893Z,46.25
2022-12-25T11:20:25.972Z,46.35
2022-12-25T11:21:26.142Z,46.45
2022-12-25T11:22:26.246Z,46.50
2022-12-25T11:23:26.363Z,46.14
2022-12-25T11:24:26.468Z,46.50
2022-12-25T11:25:28.209Z,46.25
2022-12-25T11:26:26.729Z,46.25
2022-12-25T11:27:26.811Z,46.40
2022-12-25T11:28:26.956Z,46.45
2022-12-25T11:29:27.095Z,46.45
2022-12-25T11:30:27.239Z,46.30
2022-12-25T11:31:27.385Z,46.56
2022-12-25T11:32:27.476Z,46.50
2022-12-25T11:33:27.569Z,46.40
2022-12-25T11:34:27.698Z,46.40
2022-12-25T11:35:27.779Z,46.35
2022-12-25T11:36:27.938Z,46.56
2022-12-25T11:37:28.020Z,46.25
2022-12-25T11:38:28.100Z,46.19
2022-12-25T11:39:28.271Z,46.19
2022-12-25T11:40:28.356Z,46.04
2022-12-25T11:41:28.545Z,46.04
2022-12-25T11:42:28.643Z,45.84
2022-12-25T11:43:28.746Z,45.84
2022-12-25T11:44:28.865Z,45.64
2022-12-25T11:45:29.060Z,45.54
2022-12-25T11:46:29.243Z,45.64
2022-12-25T11:47:29.285Z,45.69
2022-12-25T11:48:29.365Z,45.64
2022-12-25T11:49:30.465Z,45.59
2022-12-25T11:50:29.666Z,45.49
2022-12-25T11:51:29.784Z,45.49
2022-12-25T11:52:29.895Z,45.44
2022-12-25T11:53:29.984Z,45.54
2022-12-25T11:54:30.147Z,45.49
2022-12-25T11:55:30.224Z,45.29
2022-12-25T11:56:30.432Z,45.39
2022-12-25T11:57:30.494Z,45.49
2022-12-25T11:58:30.591Z,45.24
2022-12-25T11:59:30.775Z,45.34
2022-12-25T12:00:30.825Z,45.44
2022-12-25T12:01:31.036Z,45.24
2022-12-25T12:02:31.226Z,45.15
2022-12-25T12:03:31.296Z,45.34
2022-12-25T12:04:36.837Z,45.24
2022-12-25T12:05:32.399Z,45.15
2022-12-25T12:06:31.509Z,45.34
2022-12-25T12:07:31.611Z,45.15
2022-12-25T12:08:31.702Z,45.34
2022-12-25T12:09:31.798Z,45.15
2022-12-25T12:10:31.934Z,45.10
2022-12-25T12:11:32.066Z,44.90
2022-12-25T12:12:32.153Z,45.15
2022-12-25T12:13:32.240Z,45.34
2022-12-25T12:14:32.415Z,45.00
2022-12-25T12:15:32.508Z,45.19
2022-12-25T12:16:32.724Z,45.24
2022-12-25T12:17:32.766Z,45.05
2022-12-25T12:18:32.877Z,45.34
2022-12-25T12:19:32.950Z,45.05
2022-12-25T12:20:33.098Z,45.34
2022-12-25T12:21:33.225Z,45.05
2022-12-25T12:22:33.349Z,45.05
2022-12-25T12:23:33.489Z,45.10
2022-12-25T12:24:33.575Z,45.34
2022-12-25T12:25:33.796Z,45.10
2022-12-25T12:26:33.843Z,45.15
2022-12-25T12:27:33.886Z,44.85
2022-12-25T12:28:34.026Z,44.85
2022-12-25T12:29:34.141Z,45.05
2022-12-25T12:30:34.248Z,44.71
2022-12-25T12:31:34.447Z,44.85
2022-12-25T12:32:34.448Z,44.90
2022-12-25T12:33:34.561Z,44.85
2022-12-25T12:34:34.673Z,44.90
2022-12-25T12:35:34.756Z,44.66
2022-12-25T12:36:36.503Z,44.57
2022-12-25T12:37:35.128Z,44.47
2022-12-25T12:38:35.112Z,44.62
2022-12-25T12:39:35.268Z,44.28
2022-12-25T12:40:35.395Z,44.19
2022-12-25T12:41:35.530Z,44.10
2022-12-25T12:42:35.661Z,44.28
2022-12-25T12:43:35.752Z,44.38
2022-12-25T12:44:35.910Z,44.52
2022-12-25T12:45:36.162Z,44.28
2022-12-25T12:46:36.309Z,44.28
2022-12-25T12:47:36.303Z,44.00
2022-12-25T12:48:36.383Z,44.14
2022-12-25T12:49:36.468Z,44.00
2022-12-25T12:50:36.631Z,44.00